sensor_id;sensor_type;location;lat;lon;timestamp;P1;durP1;ratioP1;P2;durP2;ratioP2
44358;SDS011;30077;52.474;13.326;2022-07-19T00:03:41;10.25;;;7.45;;
44358;SDS011;30077;52.474;13.326;2022-07-19T00:08:41;9.77;;;6.85;;
44358;SDS011;30077;52.474;13.326;2022-07-19T00:13:41;11.35;;;7.00;;
44358;SDS011;30077;52.474;13.326;2022-07-19T00:18:42;9.73;;;6.27;;
44358;SDS011;30077;52.474;13.326;2022-07-19T00:23:42;11.65;;;6.88;;
44358;SDS011;30077;52.474;13.326;2022-07-19T00:28:43;8.20;;;6.05;;
44358;SDS011;30077;52.474;13.326;2022-07-19T00:33:43;9.85;;;6.82;;
44358;SDS011;30077;52.474;13.326;2022-07-19T00:38:43;10.85;;;5.90;;
44358;SDS011;30077;52.474;13.326;2022-07-19T00:43:43;13.87;;;6.43;;
44358;SDS011;30077;52.474;13.326;2022-07-19T00:48:44;11.97;;;6.33;;
44358;SDS011;30077;52.474;13.326;2022-07-19T00:53:45;10.63;;;6.07;;
44358;SDS011;30077;52.474;13.326;2022-07-19T00:58:46;8.95;;;5.72;;
44358;SDS011;30077;52.474;13.326;2022-07-19T01:03:48;11.52;;;6.70;;
44358;SDS011;30077;52.474;13.326;2022-07-19T01:08:49;7.88;;;5.60;;
44358;SDS011;30077;52.474;13.326;2022-07-19T01:13:50;9.17;;;6.03;;
44358;SDS011;30077;52.474;13.326;2022-07-19T01:18:50;8.77;;;5.57;;
44358;SDS011;30077;52.474;13.326;2022-07-19T01:23:50;9.07;;;5.95;;
44358;SDS011;30077;52.474;13.326;2022-07-19T01:28:51;7.97;;;5.38;;
44358;SDS011;30077;52.474;13.326;2022-07-19T01:33:51;9.63;;;5.47;;
44358;SDS011;30077;52.474;13.326;2022-07-19T01:38:52;8.45;;;5.95;;
44358;SDS011;30077;52.474;13.326;2022-07-19T01:43:53;8.65;;;5.55;;
44358;SDS011;30077;52.474;13.326;2022-07-19T01:48:53;8.20;;;5.60;;
44358;SDS011;30077;52.474;13.326;2022-07-19T01:53:53;8.80;;;5.33;;
44358;SDS011;30077;52.474;13.326;2022-07-19T01:58:53;9.40;;;5.50;;
44358;SDS011;30077;52.474;13.326;2022-07-19T02:03:54;9.27;;;4.88;;
44358;SDS011;30077;52.474;13.326;2022-07-19T02:08:54;9.25;;;5.25;;
44358;SDS011;30077;52.474;13.326;2022-07-19T02:13:54;12.43;;;5.43;;
44358;SDS011;30077;52.474;13.326;2022-07-19T02:18:54;10.52;;;5.13;;
44358;SDS011;30077;52.474;13.326;2022-07-19T02:23:55;8.10;;;4.77;;
44358;SDS011;30077;52.474;13.326;2022-07-19T02:28:55;7.47;;;5.20;;
44358;SDS011;30077;52.474;13.326;2022-07-19T02:33:55;9.45;;;5.45;;
44358;SDS011;30077;52.474;13.326;2022-07-19T02:38:55;9.75;;;5.13;;
44358;SDS011;30077;52.474;13.326;2022-07-19T02:43:59;10.20;;;5.75;;
44358;SDS011;30077;52.474;13.326;2022-07-19T02:48:59;7.97;;;5.18;;
44358;SDS011;30077;52.474;13.326;2022-07-19T02:53:59;7.82;;;4.60;;
44358;SDS011;30077;52.474;13.326;2022-07-19T02:59:00;10.25;;;4.82;;
44358;SDS011;30077;52.474;13.326;2022-07-19T03:04:00;9.93;;;4.45;;
44358;SDS011;30077;52.474;13.326;2022-07-19T03:09:00;8.97;;;5.10;;
44358;SDS011;30077;52.474;13.326;2022-07-19T03:14:01;8.23;;;5.07;;
44358;SDS011;30077;52.474;13.326;2022-07-19T03:19:01;7.07;;;4.47;;
44358;SDS011;30077;52.474;13.326;2022-07-19T03:24:01;10.85;;;4.85;;
44358;SDS011;30077;52.474;13.326;2022-07-19T03:29:01;8.85;;;5.55;;
44358;SDS011;30077;52.474;13.326;2022-07-19T03:34:02;10.03;;;5.23;;
44358;SDS011;30077;52.474;13.326;2022-07-19T03:39:02;10.02;;;4.50;;
44358;SDS011;30077;52.474;13.326;2022-07-19T03:44:03;7.55;;;5.35;;
44358;SDS011;30077;52.474;13.326;2022-07-19T03:49:03;7.73;;;5.00;;
44358;SDS011;30077;52.474;13.326;2022-07-19T03:54:03;6.50;;;4.85;;
44358;SDS011;30077;52.474;13.326;2022-07-19T03:59:04;10.83;;;5.17;;
44358;SDS011;30077;52.474;13.326;2022-07-19T04:04:04;12.53;;;5.83;;
44358;SDS011;30077;52.474;13.326;2022-07-19T04:09:05;9.52;;;5.57;;
44358;SDS011;30077;52.474;13.326;2022-07-19T04:14:05;9.65;;;5.95;;
44358;SDS011;30077;52.474;13.326;2022-07-19T04:19:05;9.50;;;4.63;;
44358;SDS011;30077;52.474;13.326;2022-07-19T04:24:05;6.05;;;4.50;;
44358;SDS011;30077;52.474;13.326;2022-07-19T04:29:06;12.25;;;5.20;;
44358;SDS011;30077;52.474;13.326;2022-07-19T04:34:06;7.85;;;4.90;;
44358;SDS011;30077;52.474;13.326;2022-07-19T04:39:06;9.40;;;5.00;;
44358;SDS011;30077;52.474;13.326;2022-07-19T04:44:06;7.28;;;4.45;;
44358;SDS011;30077;52.474;13.326;2022-07-19T04:49:07;7.43;;;4.90;;
44358;SDS011;30077;52.474;13.326;2022-07-19T04:54:07;11.75;;;5.10;;
44358;SDS011;30077;52.474;13.326;2022-07-19T04:59:07;6.45;;;4.82;;
44358;SDS011;30077;52.474;13.326;2022-07-19T05:04:08;7.63;;;5.40;;
44358;SDS011;30077;52.474;13.326;2022-07-19T05:09:08;13.18;;;5.35;;
44358;SDS011;30077;52.474;13.326;2022-07-19T05:14:08;12.57;;;5.65;;
44358;SDS011;30077;52.474;13.326;2022-07-19T05:19:09;9.17;;;4.77;;
44358;SDS011;30077;52.474;13.326;2022-07-19T05:24:09;6.82;;;4.82;;
44358;SDS011;30077;52.474;13.326;2022-07-19T05:29:09;8.87;;;4.57;;
44358;SDS011;30077;52.474;13.326;2022-07-19T05:34:10;8.82;;;4.65;;
44358;SDS011;30077;52.474;13.326;2022-07-19T05:39:10;13.05;;;7.03;;
44358;SDS011;30077;52.474;13.326;2022-07-19T05:44:10;14.25;;;7.47;;
44358;SDS011;30077;52.474;13.326;2022-07-19T05:49:11;10.00;;;6.00;;
44358;SDS011;30077;52.474;13.326;2022-07-19T05:54:11;16.75;;;5.18;;
44358;SDS011;30077;52.474;13.326;2022-07-19T05:59:13;8.88;;;4.65;;
44358;SDS011;30077;52.474;13.326;2022-07-19T06:04:13;9.07;;;6.50;;
44358;SDS011;30077;52.474;13.326;2022-07-19T06:09:13;7.50;;;4.88;;
44358;SDS011;30077;52.474;13.326;2022-07-19T06:14:15;8.98;;;4.60;;
44358;SDS011;30077;52.474;13.326;2022-07-19T06:19:16;9.10;;;3.93;;
44358;SDS011;30077;52.474;13.326;2022-07-19T06:24:16;10.60;;;4.47;;
44358;SDS011;30077;52.474;13.326;2022-07-19T06:29:16;6.57;;;4.05;;
44358;SDS011;30077;52.474;13.326;2022-07-19T06:34:16;6.13;;;4.03;;
44358;SDS011;30077;52.474;13.326;2022-07-19T06:39:17;14.35;;;9.02;;
44358;SDS011;30077;52.474;13.326;2022-07-19T06:44:17;9.70;;;3.80;;
44358;SDS011;30077;52.474;13.326;2022-07-19T06:49:18;7.95;;;3.83;;
44358;SDS011;30077;52.474;13.326;2022-07-19T06:54:18;9.32;;;3.67;;
44358;SDS011;30077;52.474;13.326;2022-07-19T06:59:18;5.60;;;3.35;;
44358;SDS011;30077;52.474;13.326;2022-07-19T07:04:19;12.68;;;4.38;;
44358;SDS011;30077;52.474;13.326;2022-07-19T07:09:19;9.43;;;4.13;;
44358;SDS011;30077;52.474;13.326;2022-07-19T07:14:20;5.85;;;3.38;;
44358;SDS011;30077;52.474;13.326;2022-07-19T07:19:20;6.70;;;4.38;;
44358;SDS011;30077;52.474;13.326;2022-07-19T07:24:20;10.80;;;4.10;;
44358;SDS011;30077;52.474;13.326;2022-07-19T07:29:21;5.88;;;3.88;;
44358;SDS011;30077;52.474;13.326;2022-07-19T07:34:21;13.10;;;4.23;;
44358;SDS011;30077;52.474;13.326;2022-07-19T07:39:21;8.13;;;3.90;;
44358;SDS011;30077;52.474;13.326;2022-07-19T07:44:21;6.13;;;3.55;;
44358;SDS011;30077;52.474;13.326;2022-07-19T07:49:22;12.45;;;3.60;;
44358;SDS011;30077;52.474;13.326;2022-07-19T07:54:22;7.70;;;3.97;;
44358;SDS011;30077;52.474;13.326;2022-07-19T07:59:22;9.77;;;4.10;;
44358;SDS011;30077;52.474;13.326;2022-07-19T08:04:22;12.40;;;3.65;;
44358;SDS011;30077;52.474;13.326;2022-07-19T08:09:23;12.52;;;3.95;;
44358;SDS011;30077;52.474;13.326;2022-07-19T08:14:23;10.82;;;4.30;;
44358;SDS011;30077;52.474;13.326;2022-07-19T08:19:23;5.72;;;3.55;;
44358;SDS011;30077;52.474;13.326;2022-07-19T08:24:24;7.95;;;3.65;;
44358;SDS011;30077;52.474;13.326;2022-07-19T08:29:24;15.40;;;3.90;;
44358;SDS011;30077;52.474;13.326;2022-07-19T08:34:24;19.00;;;4.30;;
44358;SDS011;30077;52.474;13.326;2022-07-19T08:39:25;7.40;;;3.95;;
44358;SDS011;30077;52.474;13.326;2022-07-19T08:44:25;12.30;;;3.58;;
44358;SDS011;30077;52.474;13.326;2022-07-19T08:49:26;10.67;;;3.03;;
44358;SDS011;30077;52.474;13.326;2022-07-19T08:54:26;10.00;;;3.72;;
44358;SDS011;30077;52.474;13.326;2022-07-19T08:59:27;9.80;;;3.13;;
44358;SDS011;30077;52.474;13.326;2022-07-19T09:04:27;8.53;;;3.17;;
44358;SDS011;30077;52.474;13.326;2022-07-19T09:09:33;5.97;;;3.33;;
44358;SDS011;30077;52.474;13.326;2022-07-19T09:14:36;8.15;;;3.78;;
44358;SDS011;30077;52.474;13.326;2022-07-19T09:19:40;8.73;;;3.28;;
44358;SDS011;30077;52.474;13.326;2022-07-19T09:24:44;8.57;;;3.60;;
44358;SDS011;30077;52.474;13.326;2022-07-19T09:29:47;9.90;;;3.35;;
44358;SDS011;30077;52.474;13.326;2022-07-19T09:34:59;7.38;;;3.42;;
44358;SDS011;30077;52.474;13.326;2022-07-19T09:40:05;9.52;;;3.38;;
44358;SDS011;30077;52.474;13.326;2022-07-19T09:45:11;8.88;;;3.55;;
44358;SDS011;30077;52.474;13.326;2022-07-19T09:50:17;5.90;;;3.20;;
44358;SDS011;30077;52.474;13.326;2022-07-19T09:55:21;9.48;;;3.67;;
44358;SDS011;30077;52.474;13.326;2022-07-19T10:00:22;3.72;;;3.20;;
44358;SDS011;30077;52.474;13.326;2022-07-19T10:05:25;7.72;;;4.03;;
44358;SDS011;30077;52.474;13.326;2022-07-19T10:10:27;5.25;;;3.47;;
44358;SDS011;30077;52.474;13.326;2022-07-19T10:15:31;8.23;;;3.67;;
44358;SDS011;30077;52.474;13.326;2022-07-19T10:20:39;8.88;;;3.70;;
44358;SDS011;30077;52.474;13.326;2022-07-19T10:25:44;6.53;;;3.55;;
44358;SDS011;30077;52.474;13.326;2022-07-19T10:30:46;5.82;;;3.58;;
44358;SDS011;30077;52.474;13.326;2022-07-19T10:35:46;10.63;;;3.50;;
44358;SDS011;30077;52.474;13.326;2022-07-19T10:40:48;6.97;;;3.40;;
44358;SDS011;30077;52.474;13.326;2022-07-19T10:51:01;6.95;;;3.60;;
44358;SDS011;30077;52.474;13.326;2022-07-19T11:01:19;6.97;;;3.55;;
44358;SDS011;30077;52.474;13.326;2022-07-19T11:06:22;7.30;;;3.20;;
44358;SDS011;30077;52.474;13.326;2022-07-19T11:11:24;6.22;;;3.92;;
44358;SDS011;30077;52.474;13.326;2022-07-19T11:16:29;4.43;;;3.50;;
44358;SDS011;30077;52.474;13.326;2022-07-19T11:21:30;5.77;;;3.37;;
44358;SDS011;30077;52.474;13.326;2022-07-19T11:26:38;5.88;;;3.67;;
44358;SDS011;30077;52.474;13.326;2022-07-19T11:31:45;8.73;;;3.72;;
44358;SDS011;30077;52.474;13.326;2022-07-19T11:36:56;5.57;;;3.20;;
44358;SDS011;30077;52.474;13.326;2022-07-19T11:41:57;6.35;;;3.15;;
44358;SDS011;30077;52.474;13.326;2022-07-19T11:46:57;7.85;;;3.55;;
44358;SDS011;30077;52.474;13.326;2022-07-19T11:51:58;5.45;;;3.58;;
44358;SDS011;30077;52.474;13.326;2022-07-19T11:56:59;8.30;;;3.35;;
44358;SDS011;30077;52.474;13.326;2022-07-19T12:01:59;7.90;;;4.25;;
44358;SDS011;30077;52.474;13.326;2022-07-19T12:07:00;6.17;;;3.63;;
44358;SDS011;30077;52.474;13.326;2022-07-19T12:12:10;6.33;;;3.97;;
44358;SDS011;30077;52.474;13.326;2022-07-19T12:17:16;5.35;;;3.78;;
44358;SDS011;30077;52.474;13.326;2022-07-19T12:22:54;4.88;;;3.85;;
44358;SDS011;30077;52.474;13.326;2022-07-19T12:27:57;4.00;;;3.10;;
44358;SDS011;30077;52.474;13.326;2022-07-19T12:38:07;5.65;;;3.10;;
44358;SDS011;30077;52.474;13.326;2022-07-19T12:43:09;7.35;;;3.28;;
44358;SDS011;30077;52.474;13.326;2022-07-19T12:48:14;5.47;;;3.25;;
44358;SDS011;30077;52.474;13.326;2022-07-19T12:53:15;5.65;;;3.20;;
44358;SDS011;30077;52.474;13.326;2022-07-19T13:03:38;4.43;;;3.40;;
44358;SDS011;30077;52.474;13.326;2022-07-19T13:08:40;5.45;;;3.75;;
44358;SDS011;30077;52.474;13.326;2022-07-19T13:13:40;6.15;;;3.45;;
44358;SDS011;30077;52.474;13.326;2022-07-19T13:18:40;5.97;;;3.88;;
44358;SDS011;30077;52.474;13.326;2022-07-19T13:23:41;6.77;;;3.43;;
44358;SDS011;30077;52.474;13.326;2022-07-19T13:28:41;4.60;;;4.13;;
44358;SDS011;30077;52.474;13.326;2022-07-19T13:33:42;6.27;;;3.90;;
44358;SDS011;30077;52.474;13.326;2022-07-19T13:38:42;8.43;;;3.53;;
44358;SDS011;30077;52.474;13.326;2022-07-19T13:43:43;6.95;;;4.05;;
44358;SDS011;30077;52.474;13.326;2022-07-19T13:53:45;10.32;;;3.40;;
44358;SDS011;30077;52.474;13.326;2022-07-19T13:58:45;6.63;;;3.63;;
44358;SDS011;30077;52.474;13.326;2022-07-19T14:03:47;5.13;;;3.58;;
44358;SDS011;30077;52.474;13.326;2022-07-19T14:08:48;4.73;;;3.60;;
44358;SDS011;30077;52.474;13.326;2022-07-19T14:13:48;7.80;;;3.90;;
44358;SDS011;30077;52.474;13.326;2022-07-19T14:18:48;5.30;;;3.78;;
44358;SDS011;30077;52.474;13.326;2022-07-19T14:23:48;10.63;;;3.15;;
44358;SDS011;30077;52.474;13.326;2022-07-19T14:28:49;5.30;;;2.90;;
44358;SDS011;30077;52.474;13.326;2022-07-19T14:33:49;5.85;;;3.33;;
44358;SDS011;30077;52.474;13.326;2022-07-19T14:38:49;7.53;;;3.20;;
44358;SDS011;30077;52.474;13.326;2022-07-19T14:43:50;11.33;;;3.63;;
44358;SDS011;30077;52.474;13.326;2022-07-19T14:48:50;4.53;;;3.42;;
44358;SDS011;30077;52.474;13.326;2022-07-19T14:53:50;6.20;;;3.45;;
44358;SDS011;30077;52.474;13.326;2022-07-19T14:58:51;6.40;;;3.30;;
44358;SDS011;30077;52.474;13.326;2022-07-19T15:03:51;6.50;;;3.20;;
44358;SDS011;30077;52.474;13.326;2022-07-19T15:08:51;5.65;;;3.85;;
44358;SDS011;30077;52.474;13.326;2022-07-19T15:13:52;8.10;;;3.40;;
44358;SDS011;30077;52.474;13.326;2022-07-19T15:18:52;3.92;;;3.28;;
44358;SDS011;30077;52.474;13.326;2022-07-19T15:23:53;4.47;;;3.60;;
44358;SDS011;30077;52.474;13.326;2022-07-19T15:28:53;5.22;;;3.20;;
44358;SDS011;30077;52.474;13.326;2022-07-19T15:33:54;4.93;;;3.40;;
44358;SDS011;30077;52.474;13.326;2022-07-19T15:38:54;5.40;;;3.60;;
44358;SDS011;30077;52.474;13.326;2022-07-19T15:43:54;7.43;;;3.90;;
44358;SDS011;30077;52.474;13.326;2022-07-19T15:48:56;6.43;;;3.65;;
44358;SDS011;30077;52.474;13.326;2022-07-19T15:53:57;5.45;;;3.17;;
44358;SDS011;30077;52.474;13.326;2022-07-19T15:58:57;13.25;;;3.78;;
44358;SDS011;30077;52.474;13.326;2022-07-19T16:03:58;6.80;;;3.67;;
44358;SDS011;30077;52.474;13.326;2022-07-19T16:08:58;6.90;;;3.80;;
44358;SDS011;30077;52.474;13.326;2022-07-19T16:13:58;6.40;;;3.60;;
44358;SDS011;30077;52.474;13.326;2022-07-19T16:18:58;5.45;;;3.80;;
44358;SDS011;30077;52.474;13.326;2022-07-19T16:23:59;9.45;;;3.85;;
44358;SDS011;30077;52.474;13.326;2022-07-19T16:28:59;5.77;;;3.60;;
44358;SDS011;30077;52.474;13.326;2022-07-19T16:33:59;6.33;;;3.63;;
44358;SDS011;30077;52.474;13.326;2022-07-19T16:39:00;7.18;;;4.05;;
44358;SDS011;30077;52.474;13.326;2022-07-19T16:44:00;6.07;;;3.47;;
44358;SDS011;30077;52.474;13.326;2022-07-19T16:49:00;9.57;;;4.10;;
44358;SDS011;30077;52.474;13.326;2022-07-19T16:54:00;6.13;;;3.50;;
44358;SDS011;30077;52.474;13.326;2022-07-19T16:59:01;5.60;;;3.65;;
44358;SDS011;30077;52.474;13.326;2022-07-19T17:04:01;8.73;;;3.65;;
44358;SDS011;30077;52.474;13.326;2022-07-19T17:09:02;4.35;;;3.67;;
44358;SDS011;30077;52.474;13.326;2022-07-19T17:14:03;5.22;;;3.55;;
44358;SDS011;30077;52.474;13.326;2022-07-19T17:19:04;6.03;;;3.43;;
44358;SDS011;30077;52.474;13.326;2022-07-19T17:24:04;5.63;;;4.07;;
44358;SDS011;30077;52.474;13.326;2022-07-19T17:29:05;6.10;;;4.10;;
44358;SDS011;30077;52.474;13.326;2022-07-19T17:34:06;9.05;;;4.10;;
44358;SDS011;30077;52.474;13.326;2022-07-19T17:39:06;4.87;;;3.47;;
44358;SDS011;30077;52.474;13.326;2022-07-19T17:44:11;7.65;;;3.85;;
44358;SDS011;30077;52.474;13.326;2022-07-19T17:49:13;7.65;;;5.72;;
44358;SDS011;30077;52.474;13.326;2022-07-19T17:54:13;7.65;;;5.28;;
44358;SDS011;30077;52.474;13.326;2022-07-19T17:59:13;9.55;;;5.68;;
44358;SDS011;30077;52.474;13.326;2022-07-19T18:04:13;6.57;;;5.22;;
44358;SDS011;30077;52.474;13.326;2022-07-19T18:09:14;10.73;;;4.50;;
44358;SDS011;30077;52.474;13.326;2022-07-19T18:14:14;6.00;;;4.85;;
44358;SDS011;30077;52.474;13.326;2022-07-19T18:19:16;7.55;;;4.72;;
44358;SDS011;30077;52.474;13.326;2022-07-19T18:24:16;7.53;;;4.90;;
44358;SDS011;30077;52.474;13.326;2022-07-19T18:29:16;6.75;;;4.65;;
44358;SDS011;30077;52.474;13.326;2022-07-19T18:34:17;12.77;;;5.77;;
44358;SDS011;30077;52.474;13.326;2022-07-19T18:39:20;12.07;;;5.55;;
44358;SDS011;30077;52.474;13.326;2022-07-19T18:44:20;8.65;;;5.22;;
44358;SDS011;30077;52.474;13.326;2022-07-19T18:49:21;8.20;;;5.32;;
44358;SDS011;30077;52.474;13.326;2022-07-19T18:54:22;7.97;;;5.20;;
44358;SDS011;30077;52.474;13.326;2022-07-19T18:59:22;7.70;;;5.50;;
44358;SDS011;30077;52.474;13.326;2022-07-19T19:04:22;10.30;;;5.60;;
44358;SDS011;30077;52.474;13.326;2022-07-19T19:09:23;9.98;;;6.28;;
44358;SDS011;30077;52.474;13.326;2022-07-19T19:14:23;11.65;;;6.30;;
44358;SDS011;30077;52.474;13.326;2022-07-19T19:19:24;10.93;;;6.47;;
44358;SDS011;30077;52.474;13.326;2022-07-19T19:24:24;16.77;;;7.28;;
44358;SDS011;30077;52.474;13.326;2022-07-19T19:29:25;11.20;;;6.87;;
44358;SDS011;30077;52.474;13.326;2022-07-19T19:34:29;10.73;;;6.93;;
44358;SDS011;30077;52.474;13.326;2022-07-19T19:39:29;14.70;;;7.57;;
44358;SDS011;30077;52.474;13.326;2022-07-19T19:44:29;17.55;;;8.25;;
44358;SDS011;30077;52.474;13.326;2022-07-19T19:49:30;11.57;;;7.50;;
44358;SDS011;30077;52.474;13.326;2022-07-19T19:54:30;11.25;;;7.20;;
44358;SDS011;30077;52.474;13.326;2022-07-19T19:59:31;7.47;;;6.45;;
44358;SDS011;30077;52.474;13.326;2022-07-19T20:04:31;8.90;;;6.60;;
44358;SDS011;30077;52.474;13.326;2022-07-19T20:09:32;10.65;;;6.72;;
44358;SDS011;30077;52.474;13.326;2022-07-19T20:14:32;8.25;;;6.43;;
44358;SDS011;30077;52.474;13.326;2022-07-19T20:19:32;8.85;;;6.13;;
44358;SDS011;30077;52.474;13.326;2022-07-19T20:24:33;10.63;;;7.20;;
44358;SDS011;30077;52.474;13.326;2022-07-19T20:29:33;9.02;;;7.05;;
44358;SDS011;30077;52.474;13.326;2022-07-19T20:34:33;11.68;;;7.05;;
44358;SDS011;30077;52.474;13.326;2022-07-19T20:39:33;10.17;;;7.07;;
44358;SDS011;30077;52.474;13.326;2022-07-19T20:44:34;12.53;;;6.93;;
44358;SDS011;30077;52.474;13.326;2022-07-19T20:49:34;9.18;;;6.93;;
44358;SDS011;30077;52.474;13.326;2022-07-19T20:54:34;12.57;;;7.32;;
44358;SDS011;30077;52.474;13.326;2022-07-19T20:59:35;8.75;;;6.63;;
44358;SDS011;30077;52.474;13.326;2022-07-19T21:04:35;9.05;;;6.65;;
44358;SDS011;30077;52.474;13.326;2022-07-19T21:09:35;10.35;;;6.25;;
44358;SDS011;30077;52.474;13.326;2022-07-19T21:14:35;10.35;;;6.25;;
44358;SDS011;30077;52.474;13.326;2022-07-19T21:19:36;17.88;;;5.28;;
44358;SDS011;30077;52.474;13.326;2022-07-19T21:24:36;12.63;;;6.38;;
44358;SDS011;30077;52.474;13.326;2022-07-19T21:29:36;10.30;;;6.47;;
44358;SDS011;30077;52.474;13.326;2022-07-19T21:34:36;10.23;;;6.10;;
44358;SDS011;30077;52.474;13.326;2022-07-19T21:39:37;13.07;;;6.50;;
44358;SDS011;30077;52.474;13.326;2022-07-19T21:44:37;11.18;;;6.60;;
44358;SDS011;30077;52.474;13.326;2022-07-19T21:49:37;11.45;;;6.32;;
44358;SDS011;30077;52.474;13.326;2022-07-19T21:54:38;14.60;;;5.77;;
44358;SDS011;30077;52.474;13.326;2022-07-19T21:59:38;12.30;;;5.35;;
44358;SDS011;30077;52.474;13.326;2022-07-19T22:04:38;11.18;;;5.80;;
44358;SDS011;30077;52.474;13.326;2022-07-19T22:09:38;12.83;;;5.83;;
44358;SDS011;30077;52.474;13.326;2022-07-19T22:14:39;13.97;;;6.10;;
44358;SDS011;30077;52.474;13.326;2022-07-19T22:19:39;8.38;;;5.60;;
44358;SDS011;30077;52.474;13.326;2022-07-19T22:24:39;9.10;;;5.70;;
44358;SDS011;30077;52.474;13.326;2022-07-19T22:29:41;9.32;;;5.60;;
44358;SDS011;30077;52.474;13.326;2022-07-19T22:34:41;8.10;;;6.10;;
44358;SDS011;30077;52.474;13.326;2022-07-19T22:39:41;12.95;;;6.30;;
44358;SDS011;30077;52.474;13.326;2022-07-19T22:44:41;13.13;;;6.20;;
44358;SDS011;30077;52.474;13.326;2022-07-19T22:49:42;11.50;;;6.20;;
44358;SDS011;30077;52.474;13.326;2022-07-19T22:54:42;12.98;;;6.53;;
44358;SDS011;30077;52.474;13.326;2022-07-19T22:59:42;9.15;;;5.97;;
44358;SDS011;30077;52.474;13.326;2022-07-19T23:04:43;14.87;;;6.20;;
44358;SDS011;30077;52.474;13.326;2022-07-19T23:09:43;8.77;;;6.03;;
44358;SDS011;30077;52.474;13.326;2022-07-19T23:14:43;11.88;;;8.82;;
44358;SDS011;30077;52.474;13.326;2022-07-19T23:19:43;10.93;;;7.43;;
44358;SDS011;30077;52.474;13.326;2022-07-19T23:24:44;8.77;;;6.33;;
44358;SDS011;30077;52.474;13.326;2022-07-19T23:29:44;7.70;;;6.07;;
44358;SDS011;30077;52.474;13.326;2022-07-19T23:34:44;7.43;;;5.43;;
44358;SDS011;30077;52.474;13.326;2022-07-19T23:39:45;9.37;;;6.47;;
44358;SDS011;30077;52.474;13.326;2022-07-19T23:44:45;9.85;;;6.82;;
44358;SDS011;30077;52.474;13.326;2022-07-19T23:49:45;10.00;;;6.57;;
44358;SDS011;30077;52.474;13.326;2022-07-19T23:54:46;9.38;;;6.50;;
44358;SDS011;30077;52.474;13.326;2022-07-19T23:59:46;12.30;;;6.63;;
